Time;durP1;ratioP1;P1;durP2;ratioP2;P2;SDS_P1;SDS_P2;PMS_P1;PMS_P2;Temp;Humidity;BMP_temperature;BMP_pressure;BME280_temperature;BME280_humidity;BME280_pressure;Samples;Min_cycle;Max_cycle;Signal;HPM_P1;HPM_P2
2023/03/20 00:01:23;;;;;;;1.70;1.37;;;19.00;45.40;;;;;;4987642;28;20229;-70
2023/03/20 00:03:50;;;;;;;1.33;1.23;;;19.00;45.40;;;;;;5011462;28;20792;-71
2023/03/20 00:06:20;;;;;;;2.33;1.60;;;19.00;45.40;;;;;;4988223;28;20427;-72
2023/03/20 00:08:48;;;;;;;1.63;1.50;;;19.00;45.40;;;;;;4984840;28;20475;-71
2023/03/20 00:11:29;;;;;;;1.50;1.30;;;19.00;45.30;;;;;;4987176;28;20945;-71
2023/03/20 00:14:01;;;;;;;1.50;1.40;;;19.00;45.40;;;;;;4983271;28;20451;-71
2023/03/20 00:16:32;;;;;;;1.50;1.40;;;19.00;45.40;;;;;;4987777;28;20475;-71
2023/03/20 00:18:58;;;;;;;1.50;1.40;;;19.00;45.50;;;;;;4994814;28;20451;-71
2023/03/20 00:21:23;;;;;;;2.50;1.30;;;18.90;45.30;;;;;;5003314;28;20854;-70
2023/03/20 00:23:49;;;;;;;1.33;1.23;;;19.00;45.50;;;;;;4991791;28;20456;-71
2023/03/20 00:26:19;;;;;;;1.20;1.10;;;18.90;45.30;;;;;;4996283;28;20687;-70
2023/03/20 00:28:46;;;;;;;1.50;1.40;;;19.00;45.40;;;;;;4989752;28;20627;-70
2023/03/20 00:31:25;;;;;;;1.50;1.40;;;19.00;45.50;;;;;;4985557;28;20465;-70
2023/03/20 00:33:53;;;;;;;1.50;1.40;;;19.00;45.40;;;;;;4994176;28;20424;-70
2023/03/20 00:36:18;;;;;;;1.33;1.23;;;19.00;45.50;;;;;;4989482;28;20457;-70
2023/03/20 00:38:44;;;;;;;1.30;1.20;;;18.90;45.30;;;;;;4984385;28;20436;-70
2023/03/20 00:41:41;;;;;;;1.60;1.50;;;18.90;46.20;;;;;;4985084;28;20219;-70
2023/03/20 00:44:26;;;;;;;1.50;1.40;;;19.00;45.50;;;;;;4992698;28;20238;-70
2023/03/20 00:46:58;;;;;;;1.40;1.30;;;18.90;45.50;;;;;;4984152;28;20458;-70
2023/03/20 00:49:35;;;;;;;1.47;1.37;;;18.90;45.40;;;;;;4981832;28;20480;-71
2023/03/20 00:52:02;;;;;;;1.80;1.40;;;18.90;45.30;;;;;;4983179;28;20473;-70
2023/03/20 00:54:28;;;;;;;2.10;1.40;;;18.90;45.90;;;;;;4989479;28;20461;-70
2023/03/20 00:56:58;;;;;;;1.40;1.30;;;18.90;45.40;;;;;;4990244;28;20432;-70
2023/03/20 00:59:27;;;;;;;1.57;1.40;;;18.90;45.40;;;;;;4989502;28;20231;-70
2023/03/20 01:01:53;;;;;;;1.50;1.40;;;18.90;45.40;;;;;;4985450;28;20476;-70
2023/03/20 01:04:20;;;;;;;1.40;1.30;;;18.90;45.40;;;;;;4987393;28;20462;-70
2023/03/20 01:06:45;;;;;;;1.40;1.30;;;18.90;45.40;;;;;;4988787;28;20223;-70
2023/03/20 01:09:11;;;;;;;1.53;1.43;;;18.90;45.50;;;;;;4982486;28;20479;-70
2023/03/20 01:11:38;;;;;;;1.50;1.40;;;18.90;45.40;;;;;;4988197;28;20280;-70
2023/03/20 01:14:04;;;;;;;1.50;1.30;;;18.90;45.50;;;;;;4988310;28;20227;-71
2023/03/20 01:16:30;;;;;;;1.40;1.30;;;18.90;45.40;;;;;;4995287;28;20438;-71
2023/03/20 01:18:56;;;;;;;1.20;1.10;;;18.90;45.50;;;;;;4982213;28;20419;-70
2023/03/20 01:21:22;;;;;;;1.40;1.30;;;18.90;45.50;;;;;;4986279;28;20223;-70
2023/03/20 01:23:48;;;;;;;1.30;1.20;;;18.90;45.50;;;;;;4981144;28;21058;-71
2023/03/20 01:26:32;;;;;;;1.60;1.50;;;18.90;45.50;;;;;;4993278;28;20219;-70
2023/03/20 01:28:58;;;;;;;1.30;1.20;;;18.90;45.50;;;;;;4979442;28;20444;-70
2023/03/20 01:31:23;;;;;;;1.50;1.40;;;18.90;45.50;;;;;;4982727;28;20815;-70
2023/03/20 01:33:49;;;;;;;1.30;1.20;;;18.90;45.50;;;;;;4988372;28;20987;-70
2023/03/20 01:36:19;;;;;;;1.50;1.40;;;18.90;45.50;;;;;;4988780;28;20215;-70
2023/03/20 01:38:46;;;;;;;1.37;1.27;;;18.90;45.50;;;;;;4982663;28;20241;-70
2023/03/20 01:41:15;;;;;;;1.30;1.20;;;18.90;45.50;;;;;;4992258;28;20472;-70
2023/03/20 01:43:42;;;;;;;1.40;1.30;;;18.90;45.50;;;;;;4983797;28;20500;-70
2023/03/20 01:46:10;;;;;;;1.70;1.60;;;18.80;45.40;;;;;;4984254;28;20796;-70
2023/03/20 01:48:52;;;;;;;1.30;1.20;;;18.90;45.40;;;;;;4985050;28;20571;-71
2023/03/20 01:51:25;;;;;;;1.20;1.10;;;18.90;45.50;;;;;;4986156;28;20898;-70
2023/03/20 01:53:59;;;;;;;1.30;1.20;;;18.80;45.40;;;;;;4982521;28;20429;-70
2023/03/20 01:56:27;;;;;;;1.30;1.20;;;18.90;45.50;;;;;;4985672;28;20708;-69
2023/03/20 01:59:02;;;;;;;1.10;1.00;;;18.80;45.40;;;;;;4980153;28;20443;-70
2023/03/20 02:01:29;;;;;;;1.30;1.20;;;18.90;45.60;;;;;;4991894;28;20438;-70
2023/03/20 02:03:55;;;;;;;1.30;1.20;;;18.90;45.50;;;;;;4980178;28;21002;-70
2023/03/20 02:06:22;;;;;;;1.30;1.20;;;18.80;45.40;;;;;;4982537;28;20527;-70
2023/03/20 02:08:50;;;;;;;1.20;1.10;;;18.80;45.40;;;;;;4989601;28;20483;-70
2023/03/20 02:11:18;;;;;;;1.40;1.30;;;18.80;45.40;;;;;;4982629;28;20465;-70
2023/03/20 02:13:44;;;;;;;2.40;1.40;;;18.80;45.40;;;;;;4988075;28;20443;-70
2023/03/20 02:16:13;;;;;;;1.93;1.23;;;18.90;45.50;;;;;;4987919;28;20451;-70
2023/03/20 02:18:41;;;;;;;1.20;1.10;;;18.80;45.40;;;;;;4986574;28;20452;-69
2023/03/20 02:21:25;;;;;;;1.93;1.30;;;18.90;45.50;;;;;;4990323;28;20461;-69
2023/03/20 02:24:28;;;;;;;1.30;1.20;;;18.80;45.40;;;;;;4991380;28;20466;-69
2023/03/20 02:27:32;;;;;;;1.33;1.23;;;18.90;45.50;;;;;;4991154;28;20456;-69
2023/03/20 02:30:12;;;;;;;1.23;1.10;;;18.80;45.50;;;;;;4992528;28;21007;-70
2023/03/20 02:32:56;;;;;;;1.30;1.20;;;18.80;45.50;;;;;;4993545;28;20476;-70
2023/03/20 02:35:39;;;;;;;1.30;1.20;;;18.80;45.50;;;;;;4991611;28;20464;-69
2023/03/20 02:38:16;;;;;;;1.40;1.13;;;18.80;45.50;;;;;;4985111;28;20480;-70
2023/03/20 02:40:56;;;;;;;1.73;1.63;;;18.80;45.50;;;;;;4990646;28;20439;-69
2023/03/20 02:43:35;;;;;;;1.30;1.20;;;18.80;45.50;;;;;;4984784;28;20443;-70
2023/03/20 02:46:12;;;;;;;1.30;1.20;;;18.80;45.50;;;;;;4979672;28;20470;-69
2023/03/20 02:48:43;;;;;;;1.00;0.90;;;18.80;45.50;;;;;;4990745;28;20473;-70
2023/03/20 02:51:12;;;;;;;1.70;1.60;;;18.80;45.50;;;;;;4991808;28;20440;-69
2023/03/20 02:54:02;;;;;;;1.30;1.20;;;18.80;45.50;;;;;;4990647;28;21026;-70
2023/03/20 02:56:47;;;;;;;1.50;1.40;;;18.80;45.50;;;;;;4982926;28;21252;-69
2023/03/20 02:59:40;;;;;;;1.40;1.30;;;18.80;45.50;;;;;;4988353;28;20438;-69
2023/03/20 03:02:46;;;;;;;1.30;1.20;;;18.80;45.50;;;;;;4987808;28;20435;-70
2023/03/20 03:05:20;;;;;;;1.33;1.23;;;18.80;45.50;;;;;;4958109;28;20886;-70
2023/03/20 03:07:50;;;;;;;1.57;1.30;;;18.80;45.50;;;;;;4990503;28;20449;-69
2023/03/20 03:10:22;;;;;;;1.40;1.30;;;18.80;45.50;;;;;;4991918;28;20963;-69
2023/03/20 03:12:50;;;;;;;1.40;1.30;;;18.80;45.50;;;;;;4992157;28;20440;-69
2023/03/20 03:15:37;;;;;;;1.40;1.30;;;18.80;45.50;;;;;;4993032;28;20550;-69
2023/03/20 03:18:06;;;;;;;1.30;1.20;;;18.80;45.50;;;;;;4991945;28;20892;-69
2023/03/20 03:20:35;;;;;;;1.30;1.20;;;18.80;45.50;;;;;;4981363;28;20433;-69
2023/03/20 03:23:01;;;;;;;1.50;1.40;;;18.80;45.50;;;;;;4990071;28;20861;-70
2023/03/20 03:25:31;;;;;;;1.77;1.67;;;18.80;45.50;;;;;;4991892;28;20469;-70
2023/03/20 03:28:26;;;;;;;1.63;1.00;;;18.80;45.50;;;;;;4988231;28;20449;-69
2023/03/20 03:30:54;;;;;;;1.90;1.77;;;18.80;45.50;;;;;;4993225;28;20560;-69
2023/03/20 03:33:27;;;;;;;1.30;1.20;;;18.80;45.50;;;;;;4987902;28;20509;-69
2023/03/20 03:36:10;;;;;;;1.47;1.37;;;18.80;45.60;;;;;;4988319;28;20511;-69
2023/03/20 03:39:04;;;;;;;1.30;1.20;;;18.80;45.50;;;;;;4977908;28;20537;-69
2023/03/20 03:41:41;;;;;;;1.27;1.17;;;18.80;45.50;;;;;;4982756;28;20482;-69
2023/03/20 03:44:19;;;;;;;1.30;1.20;;;18.80;45.60;;;;;;4991450;28;21430;-70
2023/03/20 03:46:57;;;;;;;1.30;1.20;;;18.80;45.60;;;;;;4991111;28;20578;-69
2023/03/20 03:49:28;;;;;;;1.30;1.20;;;18.70;45.50;;;;;;4980829;28;20995;-69
2023/03/20 03:52:02;;;;;;;1.20;1.10;;;18.80;45.50;;;;;;4995295;28;20463;-69
2023/03/20 03:54:35;;;;;;;1.20;1.10;;;18.80;45.50;;;;;;4991890;28;20431;-69
2023/03/20 03:57:03;;;;;;;1.50;1.40;;;18.80;45.50;;;;;;4996090;28;20473;-69
2023/03/20 03:59:42;;;;;;;1.40;1.30;;;18.80;45.50;;;;;;4977630;28;20482;-69
2023/03/20 04:02:08;;;;;;;1.33;1.23;;;18.80;45.50;;;;;;4985594;28;20437;-69
2023/03/20 04:04:40;;;;;;;1.40;1.30;;;18.80;45.60;;;;;;4985834;28;20509;-70
2023/03/20 04:07:06;;;;;;;1.30;1.20;;;18.80;45.50;;;;;;4993902;28;20493;-69
2023/03/20 04:09:32;;;;;;;1.30;1.20;;;18.80;45.60;;;;;;4985841;28;20794;-69
2023/03/20 04:11:58;;;;;;;1.30;1.20;;;18.70;45.40;;;;;;4992437;28;20671;-69
2023/03/20 04:14:23;;;;;;;1.73;1.40;;;18.80;45.50;;;;;;4985783;28;20445;-69
2023/03/20 04:16:49;;;;;;;1.13;1.03;;;18.70;45.50;;;;;;4985183;28;20250;-69
2023/03/20 04:19:15;;;;;;;1.30;1.10;;;18.70;45.50;;;;;;4983569;28;20230;-69
2023/03/20 04:21:41;;;;;;;2.23;1.10;;;18.80;45.60;;;;;;4991368;28;20727;-72
2023/03/20 04:24:06;;;;;;;1.30;1.20;;;18.70;45.50;;;;;;4983872;28;20488;-71
2023/03/20 04:26:32;;;;;;;1.20;1.10;;;18.80;45.50;;;;;;4985655;28;20248;-71
2023/03/20 04:28:58;;;;;;;1.37;1.27;;;18.70;45.40;;;;;;4994750;28;20235;-70
2023/03/20 04:31:23;;;;;;;1.20;1.10;;;18.70;45.50;;;;;;4994434;28;20567;-70
2023/03/20 04:33:49;;;;;;;1.37;1.27;;;18.80;45.50;;;;;;4983408;28;20240;-70
2023/03/20 04:36:14;;;;;;;3.67;1.40;;;18.70;45.40;;;;;;4991153;28;20231;-70
2023/03/20 04:38:40;;;;;;;1.40;1.30;;;18.80;45.50;;;;;;4993554;28;20597;-71
2023/03/20 04:41:07;;;;;;;1.37;1.27;;;18.80;45.50;;;;;;4993196;28;20235;-71
2023/03/20 04:43:32;;;;;;;1.47;1.37;;;18.80;45.40;;;;;;4973522;28;20746;-70
2023/03/20 04:45:58;;;;;;;1.10;1.00;;;18.80;45.40;;;;;;4989415;28;20473;-70
2023/03/20 04:48:24;;;;;;;1.30;1.20;;;18.80;45.40;;;;;;4993967;28;20767;-70
2023/03/20 04:50:49;;;;;;;1.17;1.07;;;18.80;45.40;;;;;;4981169;28;20238;-69
2023/03/20 04:53:16;;;;;;;1.10;1.00;;;18.80;45.40;;;;;;4982369;28;20707;-70
2023/03/20 04:55:41;;;;;;;1.33;1.23;;;18.80;46.10;;;;;;4989647;28;20226;-70
2023/03/20 04:58:07;;;;;;;1.10;1.00;;;18.80;45.40;;;;;;4985314;28;20494;-70
2023/03/20 05:00:32;;;;;;;1.20;1.10;;;18.80;45.40;;;;;;4988306;28;20242;-70
2023/03/20 05:02:58;;;;;;;1.20;1.10;;;18.80;45.40;;;;;;4984148;28;20236;-70
2023/03/20 05:05:24;;;;;;;1.23;1.13;;;18.80;46.10;;;;;;4993689;28;20257;-70
2023/03/20 05:07:50;;;;;;;1.30;1.20;;;18.80;45.30;;;;;;4984327;28;20574;-70
2023/03/20 05:10:17;;;;;;;1.20;1.10;;;18.80;45.30;;;;;;4978017;28;20514;-73
2023/03/20 05:12:42;;;;;;;1.30;1.20;;;18.90;45.50;;;;;;4984051;28;20583;-73
2023/03/20 05:15:08;;;;;;;1.20;1.10;;;18.80;45.30;;;;;;4989576;28;22943;-73
2023/03/20 05:17:34;;;;;;;1.33;1.23;;;18.80;45.30;;;;;;4997394;28;20693;-72
2023/03/20 05:19:59;;;;;;;1.30;1.20;;;18.90;45.30;;;;;;4981320;28;20450;-72
2023/03/20 05:22:25;;;;;;;1.50;1.40;;;18.80;46.10;;;;;;4984347;28;20735;-72
2023/03/20 05:24:51;;;;;;;1.30;1.20;;;18.80;45.40;;;;;;4983072;28;20711;-72
2023/03/20 05:27:17;;;;;;;1.23;1.13;;;18.90;45.30;;;;;;4991953;28;20235;-72
2023/03/20 05:29:42;;;;;;;1.30;1.20;;;18.80;45.30;;;;;;4992462;28;20691;-72
2023/03/20 05:32:08;;;;;;;1.40;1.30;;;18.80;45.30;;;;;;4986645;28;20220;-71
2023/03/20 05:34:33;;;;;;;1.20;1.10;;;18.80;45.30;;;;;;4983872;28;20426;-72
2023/03/20 05:36:59;;;;;;;1.53;1.43;;;18.80;45.30;;;;;;4986914;28;21483;-72
2023/03/20 05:39:25;;;;;;;1.40;1.30;;;18.80;46.10;;;;;;4988262;28;20244;-73
2023/03/20 05:41:50;;;;;;;1.60;1.03;;;18.80;45.20;;;;;;4990891;28;20580;-71
2023/03/20 05:44:16;;;;;;;1.30;1.20;;;18.90;45.30;;;;;;4975756;28;20234;-77
2023/03/20 05:46:41;;;;;;;1.27;1.17;;;18.90;45.30;;;;;;4979558;28;20231;-73
2023/03/20 05:49:07;;;;;;;1.37;1.27;;;18.90;45.30;;;;;;4983356;28;20281;-71
2023/03/20 05:51:33;;;;;;;1.40;1.30;;;18.90;45.30;;;;;;4978374;28;20228;-77
2023/03/20 05:53:58;;;;;;;1.57;1.47;;;18.80;45.30;;;;;;4974324;28;20243;-75
2023/03/20 05:56:24;;;;;;;1.37;1.27;;;18.90;45.30;;;;;;4976328;28;20216;-67
2023/03/20 05:58:50;;;;;;;1.33;1.23;;;18.90;45.50;;;;;;4979756;28;20611;-67
2023/03/20 06:01:20;;;;;;;1.57;1.47;;;18.90;45.30;;;;;;4986014;28;20262;-64
2023/03/20 06:03:46;;;;;;;1.27;1.17;;;18.90;45.30;;;;;;4983519;28;20489;-66
2023/03/20 06:06:11;;;;;;;1.40;1.30;;;18.90;45.30;;;;;;4979481;28;20989;-72
2023/03/20 06:08:37;;;;;;;1.40;1.30;;;18.90;45.30;;;;;;4974036;28;20743;-74
2023/03/20 06:11:03;;;;;;;1.50;1.40;;;18.90;45.20;;;;;;4979584;28;20228;-67
2023/03/20 06:13:29;;;;;;;1.50;1.40;;;18.90;45.20;;;;;;4973383;28;20630;-67
2023/03/20 06:15:55;;;;;;;1.43;1.30;;;18.90;45.20;;;;;;4988902;28;20262;-67
2023/03/20 06:18:20;;;;;;;2.07;1.57;;;18.90;45.20;;;;;;4968198;28;20319;-68
2023/03/20 06:20:50;;;;;;;1.80;1.40;;;18.90;45.20;;;;;;4982192;28;20462;-68
2023/03/20 06:23:16;;;;;;;1.60;1.50;;;18.90;45.20;;;;;;4976626;28;20224;-67
2023/03/20 06:25:41;;;;;;;1.37;1.27;;;18.90;45.20;;;;;;4989567;28;20428;-68
2023/03/20 06:28:07;;;;;;;1.60;1.50;;;18.90;45.20;;;;;;4988730;28;20224;-69
2023/03/20 06:30:33;;;;;;;1.40;1.30;;;18.90;45.90;;;;;;4979873;28;20220;-68
2023/03/20 06:32:58;;;;;;;1.30;1.20;;;18.90;45.20;;;;;;4984583;28;20228;-67
2023/03/20 06:35:24;;;;;;;1.30;1.20;;;18.90;45.20;;;;;;4989181;28;20208;-68
2023/03/20 06:37:49;;;;;;;1.37;1.27;;;18.90;45.20;;;;;;4993752;28;20303;-65
2023/03/20 06:40:15;;;;;;;1.20;1.10;;;18.90;45.20;;;;;;4991617;28;20289;-69
2023/03/20 06:42:41;;;;;;;1.40;1.30;;;18.90;45.20;;;;;;4988412;28;20306;-69
2023/03/20 06:45:07;;;;;;;1.50;1.40;;;18.90;45.20;;;;;;4997018;28;20228;-69
2023/03/20 06:47:32;;;;;;;6.10;2.17;;;18.90;45.20;;;;;;4985577;28;20761;-69
2023/03/20 06:49:58;;;;;;;1.43;1.33;;;18.90;45.20;;;;;;4984495;28;20452;-69
2023/03/20 06:52:24;;;;;;;1.60;1.50;;;18.90;45.20;;;;;;4988980;28;20228;-73
2023/03/20 06:54:50;;;;;;;1.50;1.40;;;18.90;45.10;;;;;;4982161;28;20224;-66
2023/03/20 06:57:17;;;;;;;1.60;1.50;;;18.90;45.20;;;;;;4994976;28;20298;-68
2023/03/20 06:59:42;;;;;;;3.93;1.27;;;18.90;45.20;;;;;;4982390;28;20429;-67
2023/03/20 07:02:09;;;;;;;1.57;1.30;;;18.90;45.20;;;;;;4991849;28;20458;-67
2023/03/20 07:04:36;;;;;;;1.60;1.50;;;18.90;45.20;;;;;;4994875;28;20227;-69
2023/03/20 07:07:01;;;;;;;1.40;1.30;;;18.90;45.20;;;;;;4993215;28;20969;-68
2023/03/20 07:09:27;;;;;;;1.40;1.30;;;18.90;45.20;;;;;;4997120;28;20436;-68
2023/03/20 07:11:53;;;;;;;1.70;1.60;;;19.00;45.30;;;;;;4988815;28;21496;-70
2023/03/20 07:14:19;;;;;;;1.60;1.50;;;18.90;45.20;;;;;;4997518;28;20246;-72
2023/03/20 07:16:44;;;;;;;1.70;1.60;;;18.90;45.20;;;;;;4999067;28;20269;-71
2023/03/20 07:19:12;;;;;;;1.40;1.30;;;18.90;45.20;;;;;;4994278;28;20239;-67
2023/03/20 07:21:37;;;;;;;3.03;1.73;;;19.00;45.40;;;;;;4995879;28;20227;-68
2023/03/20 07:24:03;;;;;;;3.77;1.80;;;18.90;45.20;;;;;;4988806;28;20431;-68
2023/03/20 07:26:29;;;;;;;1.43;1.33;;;18.90;45.10;;;;;;4990663;28;20229;-67
2023/03/20 07:28:54;;;;;;;1.40;1.30;;;19.00;45.20;;;;;;4986791;28;20227;-68
2023/03/20 07:31:25;;;;;;;1.63;1.33;;;19.00;45.20;;;;;;4997977;28;20989;-67
2023/03/20 07:33:50;;;;;;;1.50;1.37;;;18.90;45.10;;;;;;4996479;28;20250;-67
2023/03/20 07:36:16;;;;;;;3.43;1.40;;;18.90;45.10;;;;;;5000265;28;20467;-67
2023/03/20 07:38:42;;;;;;;2.73;1.20;;;19.00;45.30;;;;;;4994765;28;20723;-67
2023/03/20 07:41:07;;;;;;;1.53;1.43;;;18.90;45.20;;;;;;4991888;28;20219;-67
2023/03/20 07:43:33;;;;;;;3.07;1.50;;;18.90;45.20;;;;;;4994233;28;20247;-67
2023/03/20 07:46:03;;;;;;;1.87;1.50;;;18.90;45.20;;;;;;5000825;28;20223;-67
2023/03/20 07:48:28;;;;;;;1.40;1.30;;;18.90;45.20;;;;;;4999067;28;20240;-67
2023/03/20 07:50:54;;;;;;;1.60;1.50;;;18.90;45.20;;;;;;5002621;28;20531;-67
2023/03/20 07:53:20;;;;;;;1.80;1.70;;;18.90;45.20;;;;;;4992093;28;20299;-67
2023/03/20 07:55:45;;;;;;;1.40;1.30;;;18.90;45.20;;;;;;4995894;28;20219;-68
2023/03/20 07:58:11;;;;;;;1.50;1.40;;;18.90;45.20;;;;;;4994602;28;20219;-67
2023/03/20 08:00:36;;;;;;;1.57;1.47;;;18.90;45.30;;;;;;4984640;28;20223;-67
2023/03/20 08:03:02;;;;;;;1.50;1.40;;;18.90;45.30;;;;;;4984073;28;20228;-67
2023/03/20 08:05:28;;;;;;;1.30;1.20;;;18.90;45.30;;;;;;5004964;28;20219;-67
2023/03/20 08:07:54;;;;;;;1.50;1.40;;;18.90;45.30;;;;;;4989051;28;20517;-68
2023/03/20 08:10:20;;;;;;;1.33;1.23;;;18.90;45.30;;;;;;4994516;28;20227;-67
2023/03/20 08:12:45;;;;;;;1.63;1.30;;;18.90;45.30;;;;;;4996189;28;20290;-66
2023/03/20 08:15:11;;;;;;;1.63;1.43;;;18.90;45.30;;;;;;4995386;28;20308;-65
2023/03/20 08:17:37;;;;;;;1.53;1.43;;;18.90;45.30;;;;;;4994490;28;20231;-68
2023/03/20 08:20:03;;;;;;;1.53;1.33;;;18.90;45.30;;;;;;4983987;28;20474;-69
2023/03/20 08:22:28;;;;;;;1.40;1.30;;;18.90;45.40;;;;;;4992450;28;20219;-66
2023/03/20 08:24:54;;;;;;;2.13;1.63;;;18.90;45.30;;;;;;4980080;28;20507;-68
2023/03/20 08:27:19;;;;;;;1.80;1.50;;;18.90;45.30;;;;;;4994428;28;20277;-67
2023/03/20 08:29:45;;;;;;;1.40;1.30;;;18.90;45.30;;;;;;4996008;28;20247;-69
2023/03/20 08:32:11;;;;;;;1.47;1.30;;;18.90;45.30;;;;;;4996242;28;20294;-67
2023/03/20 08:34:36;;;;;;;2.33;1.50;;;18.90;45.30;;;;;;4997791;28;20660;-67
2023/03/20 08:37:03;;;;;;;1.63;1.47;;;18.90;45.30;;;;;;4982997;28;20318;-69
2023/03/20 08:39:29;;;;;;;1.67;1.30;;;18.90;45.20;;;;;;4990033;28;20231;-69
2023/03/20 08:41:54;;;;;;;1.47;1.30;;;18.90;45.20;;;;;;4990420;28;20454;-70
2023/03/20 08:44:20;;;;;;;1.27;1.17;;;18.90;45.20;;;;;;4999489;28;20255;-70
2023/03/20 08:46:46;;;;;;;1.30;1.20;;;18.90;45.30;;;;;;4993013;28;20390;-69
2023/03/20 08:49:12;;;;;;;1.23;1.13;;;18.90;45.20;;;;;;4983481;28;20231;-69
2023/03/20 08:51:37;;;;;;;2.00;1.80;;;18.90;45.20;;;;;;4997287;28;20220;-69
2023/03/20 08:54:03;;;;;;;1.10;1.00;;;18.90;45.20;;;;;;4996624;28;20224;-69
2023/03/20 08:56:28;;;;;;;2.30;1.20;;;18.90;45.20;;;;;;4996758;28;20227;-69
2023/03/20 08:58:54;;;;;;;2.67;1.30;;;18.90;45.20;;;;;;4983806;28;20224;-69
2023/03/20 09:01:20;;;;;;;1.30;1.20;;;18.90;45.20;;;;;;4987069;28;20708;-69
2023/03/20 09:03:46;;;;;;;1.30;1.20;;;18.90;45.30;;;;;;4989367;28;20227;-75
2023/03/20 09:06:12;;;;;;;1.30;1.20;;;18.90;45.30;;;;;;4985011;28;21530;-68
2023/03/20 09:08:37;;;;;;;1.53;1.43;;;18.90;45.30;;;;;;4992187;28;20232;-67
2023/03/20 09:11:04;;;;;;;1.30;1.20;;;18.90;45.20;;;;;;4988388;28;20243;-66
2023/03/20 09:13:29;;;;;;;1.43;1.33;;;18.90;45.30;;;;;;4985867;28;20284;-67
2023/03/20 09:15:56;;;;;;;1.30;1.17;;;18.90;45.20;;;;;;4998461;28;20459;-66
2023/03/20 09:18:22;;;;;;;1.83;1.30;;;18.90;45.20;;;;;;4990673;28;20231;-66
2023/03/20 09:20:48;;;;;;;1.37;1.27;;;18.90;45.20;;;;;;4996022;28;20955;-66
2023/03/20 09:23:14;;;;;;;1.30;1.20;;;18.90;45.20;;;;;;4993294;28;20419;-66
2023/03/20 09:25:40;;;;;;;1.40;1.27;;;18.90;45.30;;;;;;4995925;28;23482;-67
2023/03/20 09:28:05;;;;;;;1.20;1.10;;;18.90;45.30;;;;;;4992259;28;20230;-66
2023/03/20 09:30:31;;;;;;;1.70;1.27;;;18.90;45.30;;;;;;4996986;28;20231;-66
2023/03/20 09:32:56;;;;;;;1.83;1.20;;;18.90;45.20;;;;;;4996805;28;20223;-70
2023/03/20 09:35:22;;;;;;;1.20;1.10;;;18.90;45.20;;;;;;4995012;28;20326;-75
2023/03/20 09:37:48;;;;;;;1.50;1.40;;;18.90;45.30;;;;;;4995895;28;20215;-67
2023/03/20 09:40:42;;;;;;;1.37;1.27;;;18.90;45.20;;;;;;4991752;28;20664;-67
2023/03/20 09:43:32;;;;;;;1.30;1.20;;;18.90;45.20;;;;;;4985297;28;20653;-67
2023/03/20 09:46:19;;;;;;;1.20;1.10;;;18.90;45.20;;;;;;4998049;28;20532;-66
2023/03/20 09:49:25;;;;;;;2.63;2.43;;;18.90;45.30;;;;;;4994153;28;20553;-66
2023/03/20 09:51:55;;;;;;;1.30;1.20;;;18.90;46.10;;;;;;4990176;28;20426;-67
2023/03/20 09:54:23;;;;;;;1.30;1.20;;;18.90;45.30;;;;;;4998023;28;20431;-67
2023/03/20 09:56:50;;;;;;;1.30;1.20;;;18.90;45.30;;;;;;4995262;28;20429;-66
2023/03/20 09:59:19;;;;;;;1.40;1.30;;;18.90;45.30;;;;;;4994903;28;20455;-67
2023/03/20 10:01:51;;;;;;;1.50;1.20;;;18.90;45.30;;;;;;4987846;28;20423;-67
2023/03/20 10:04:17;;;;;;;1.30;1.20;;;18.90;45.30;;;;;;4998823;28;20503;-66
2023/03/20 10:06:42;;;;;;;1.20;1.10;;;18.90;45.30;;;;;;4996579;28;20970;-66
2023/03/20 10:09:21;;;;;;;1.23;1.13;;;18.90;45.30;;;;;;4983142;28;20659;-66
2023/03/20 10:12:13;;;;;;;1.60;1.50;;;18.90;45.40;;;;;;4998591;28;20269;-66
2023/03/20 10:14:47;;;;;;;1.33;1.23;;;18.90;45.30;;;;;;4990562;28;20450;-66
2023/03/20 10:17:37;;;;;;;1.43;1.20;;;18.90;45.30;;;;;;4997189;28;20429;-66
2023/03/20 10:20:38;;;;;;;1.23;1.13;;;18.90;45.30;;;;;;4989558;28;20440;-66
2023/03/20 10:23:19;;;;;;;2.30;1.30;;;18.90;45.30;;;;;;4998442;28;20780;-66
2023/03/20 10:25:51;;;;;;;1.43;1.10;;;18.90;45.30;;;;;;4997025;28;20473;-67
2023/03/20 10:28:46;;;;;;;1.33;1.23;;;18.90;45.30;;;;;;4992745;28;20424;-66
2023/03/20 10:31:26;;;;;;;1.10;1.00;;;18.90;45.30;;;;;;5004790;28;20431;-67
2023/03/20 10:34:01;;;;;;;1.27;1.17;;;18.90;45.30;;;;;;4998536;28;20973;-67
2023/03/20 10:36:49;;;;;;;1.20;1.10;;;18.90;45.30;;;;;;4994002;28;20466;-66
2023/03/20 10:39:37;;;;;;;1.40;1.27;;;18.90;45.30;;;;;;4990041;28;20930;-66
2023/03/20 10:42:12;;;;;;;1.30;1.20;;;18.90;45.20;;;;;;4984010;28;20436;-69
2023/03/20 10:44:40;;;;;;;1.03;0.93;;;18.90;45.20;;;;;;4983500;28;20571;-67
2023/03/20 10:47:11;;;;;;;2.20;1.30;;;18.90;45.30;;;;;;4985706;28;20441;-67
2023/03/20 10:49:44;;;;;;;1.10;1.00;;;18.90;45.30;;;;;;4986150;28;20453;-68
2023/03/20 10:52:15;;;;;;;1.03;0.93;;;18.90;45.20;;;;;;4990519;28;23731;-67
2023/03/20 10:54:48;;;;;;;1.20;1.10;;;18.90;45.20;;;;;;4985961;28;20528;-67
2023/03/20 10:57:26;;;;;;;1.30;1.20;;;18.90;45.20;;;;;;4992676;28;20501;-67
2023/03/20 10:59:55;;;;;;;0.90;0.90;;;18.90;45.20;;;;;;4994112;28;20865;-68
2023/03/20 11:02:24;;;;;;;2.17;1.20;;;18.90;45.30;;;;;;4988186;28;20440;-68
2023/03/20 11:04:50;;;;;;;2.60;1.20;;;18.90;45.30;;;;;;4997626;28;20551;-67
2023/03/20 11:07:32;;;;;;;1.23;1.13;;;18.90;45.30;;;;;;4998279;28;20504;-67
2023/03/20 11:10:04;;;;;;;1.10;1.00;;;18.90;45.30;;;;;;4997938;28;20227;-67
2023/03/20 11:12:37;;;;;;;1.17;1.07;;;18.90;45.20;;;;;;4996365;28;20480;-67
2023/03/20 11:15:19;;;;;;;1.20;1.10;;;18.90;45.20;;;;;;4991158;28;20587;-67
2023/03/20 11:18:06;;;;;;;1.30;1.20;;;18.90;45.20;;;;;;4982370;28;20445;-67
2023/03/20 11:20:38;;;;;;;1.33;1.23;;;18.90;45.30;;;;;;4980488;28;20448;-67
2023/03/20 11:23:07;;;;;;;1.13;1.03;;;18.90;45.30;;;;;;4995419;28;20544;-67
2023/03/20 11:25:38;;;;;;;1.10;1.00;;;18.90;45.30;;;;;;4999014;28;20435;-67
2023/03/20 11:28:29;;;;;;;1.20;1.10;;;18.90;45.30;;;;;;4981336;28;20939;-67
2023/03/20 11:31:22;;;;;;;1.30;1.20;;;18.90;45.30;;;;;;4995988;28;20482;-67
2023/03/20 11:34:08;;;;;;;1.57;1.00;;;18.90;45.20;;;;;;4989422;28;20971;-66
2023/03/20 11:36:36;;;;;;;1.33;1.10;;;18.90;45.30;;;;;;4989760;28;20469;-67
2023/03/20 11:39:15;;;;;;;1.30;1.20;;;18.90;45.30;;;;;;4990174;28;20439;-68
2023/03/20 11:41:46;;;;;;;1.20;1.10;;;18.90;45.30;;;;;;4989644;28;21412;-67
2023/03/20 11:44:27;;;;;;;1.87;1.10;;;18.90;45.30;;;;;;4990189;28;20560;-67
2023/03/20 11:47:04;;;;;;;1.70;1.23;;;18.90;45.20;;;;;;4989420;28;20531;-69
2023/03/20 11:49:44;;;;;;;2.13;1.10;;;18.90;45.20;;;;;;4993683;28;20443;-70
2023/03/20 11:52:15;;;;;;;1.10;1.00;;;18.90;45.20;;;;;;4996776;28;20476;-67
2023/03/20 11:54:54;;;;;;;1.20;1.10;;;18.90;45.30;;;;;;4993729;28;20458;-69
2023/03/20 11:57:31;;;;;;;1.20;1.10;;;18.90;45.30;;;;;;4992222;28;21072;-68
2023/03/20 11:59:59;;;;;;;1.23;1.13;;;18.90;45.20;;;;;;4998863;28;20864;-69
2023/03/20 12:02:26;;;;;;;1.00;0.90;;;18.90;45.30;;;;;;4991663;28;20504;-68
2023/03/20 12:04:51;;;;;;;3.13;1.10;;;18.90;45.30;;;;;;4993157;28;20490;-68
2023/03/20 12:07:29;;;;;;;1.27;1.17;;;18.90;45.20;;;;;;5001444;28;20439;-69
2023/03/20 12:10:03;;;;;;;1.73;1.10;;;18.90;45.20;;;;;;4988809;28;20250;-68
2023/03/20 12:12:35;;;;;;;3.43;1.80;;;18.90;45.30;;;;;;4997072;28;20496;-68
2023/03/20 12:15:09;;;;;;;1.17;1.07;;;18.90;45.20;;;;;;4995363;28;20456;-68
2023/03/20 12:17:52;;;;;;;1.13;1.03;;;18.90;45.30;;;;;;5002008;28;20757;-68
2023/03/20 12:20:43;;;;;;;1.10;1.00;;;18.90;45.20;;;;;;4994970;28;20531;-68
2023/03/20 12:23:09;;;;;;;1.03;0.93;;;18.90;45.20;;;;;;4993114;28;20851;-68
2023/03/20 12:25:52;;;;;;;1.63;1.03;;;18.90;45.20;;;;;;4996022;28;20442;-68
2023/03/20 12:28:40;;;;;;;2.50;1.17;;;18.90;45.20;;;;;;4989932;28;20960;-77
2023/03/20 12:31:18;;;;;;;1.27;1.17;;;18.90;45.20;;;;;;4994815;28;20468;-72
2023/03/20 12:33:51;;;;;;;1.30;1.03;;;18.90;45.20;;;;;;4997935;28;20440;-67
2023/03/20 12:36:28;;;;;;;1.13;1.03;;;18.90;45.30;;;;;;4983826;28;20454;-72
2023/03/20 12:38:54;;;;;;;1.63;1.00;;;18.90;45.20;;;;;;4999050;28;20465;-70
2023/03/20 12:41:29;;;;;;;0.97;0.90;;;18.90;45.20;;;;;;4993066;28;20957;-68
2023/03/20 12:44:22;;;;;;;1.10;1.00;;;18.90;45.10;;;;;;4982971;28;20230;-68
2023/03/20 12:46:58;;;;;;;1.47;1.20;;;18.90;45.20;;;;;;4988101;28;20437;-68
2023/03/20 12:49:48;;;;;;;1.10;1.00;;;18.90;45.20;;;;;;4986088;28;20482;-67
2023/03/20 12:52:17;;;;;;;1.53;1.10;;;18.90;45.20;;;;;;4997677;28;20419;-67
2023/03/20 12:55:00;;;;;;;1.47;1.10;;;18.90;45.20;;;;;;4998160;28;20423;-67
2023/03/20 12:57:37;;;;;;;3.73;1.30;;;18.90;45.20;;;;;;4990548;28;20451;-70
2023/03/20 13:00:19;;;;;;;1.27;1.17;;;18.90;45.20;;;;;;4980857;28;20434;-67
2023/03/20 13:03:05;;;;;;;2.10;0.90;;;18.90;45.10;;;;;;4991990;28;20476;-66
2023/03/20 13:05:53;;;;;;;2.00;1.00;;;18.90;45.10;;;;;;4993536;28;20431;-67
2023/03/20 13:08:36;;;;;;;1.10;0.93;;;18.90;45.10;;;;;;4992095;28;20470;-67